sensor_id;sensor_type;location;lat;lon;timestamp;pressure;altitude;pressure_sealevel;temperature
58929;BMP180;44713;53.378;10.022;2023-05-31T00:01:30;102429.00;;;10.60
58929;BMP180;44713;53.378;10.022;2023-05-31T00:03:55;102432.00;;;10.50
58929;BMP180;44713;53.378;10.022;2023-05-31T00:06:20;102433.00;;;10.40
58929;BMP180;44713;53.378;10.022;2023-05-31T00:08:46;102434.00;;;10.30
58929;BMP180;44713;53.378;10.022;2023-05-31T00:11:12;102438.00;;;10.30
58929;BMP180;44713;53.378;10.022;2023-05-31T00:13:37;102441.00;;;10.20
58929;BMP180;44713;53.378;10.022;2023-05-31T00:16:06;102441.00;;;10.10
58929;BMP180;44713;53.378;10.022;2023-05-31T00:18:31;102435.00;;;10.20
58929;BMP180;44713;53.378;10.022;2023-05-31T00:20:57;102433.00;;;10.20
58929;BMP180;44713;53.378;10.022;2023-05-31T00:23:22;102438.00;;;10.20
58929;BMP180;44713;53.378;10.022;2023-05-31T00:25:47;102437.00;;;10.20
58929;BMP180;44713;53.378;10.022;2023-05-31T00:28:13;102436.00;;;10.20
58929;BMP180;44713;53.378;10.022;2023-05-31T00:30:38;102432.00;;;10.10
58929;BMP180;44713;53.378;10.022;2023-05-31T00:33:04;102432.00;;;10.10
58929;BMP180;44713;53.378;10.022;2023-05-31T00:35:30;102434.00;;;10.10
58929;BMP180;44713;53.378;10.022;2023-05-31T00:37:55;102439.00;;;10.10
58929;BMP180;44713;53.378;10.022;2023-05-31T00:40:20;102426.00;;;10.00
58929;BMP180;44713;53.378;10.022;2023-05-31T00:42:46;102432.00;;;9.90
58929;BMP180;44713;53.378;10.022;2023-05-31T00:45:11;102441.00;;;9.80
58929;BMP180;44713;53.378;10.022;2023-05-31T00:47:37;102436.00;;;9.80
58929;BMP180;44713;53.378;10.022;2023-05-31T00:50:03;102436.00;;;9.70
58929;BMP180;44713;53.378;10.022;2023-05-31T00:52:28;102440.00;;;9.70
58929;BMP180;44713;53.378;10.022;2023-05-31T00:54:55;102437.00;;;9.80
58929;BMP180;44713;53.378;10.022;2023-05-31T00:57:21;102440.00;;;9.80
58929;BMP180;44713;53.378;10.022;2023-05-31T00:59:47;102430.00;;;9.80
58929;BMP180;44713;53.378;10.022;2023-05-31T01:02:12;102439.00;;;9.80
58929;BMP180;44713;53.378;10.022;2023-05-31T01:04:39;102440.00;;;9.80
58929;BMP180;44713;53.378;10.022;2023-05-31T01:07:06;102431.00;;;9.80
58929;BMP180;44713;53.378;10.022;2023-05-31T01:09:32;102428.00;;;9.70
58929;BMP180;44713;53.378;10.022;2023-05-31T01:12:25;102435.00;;;9.60
58929;BMP180;44713;53.378;10.022;2023-05-31T01:20:08;102438.00;;;9.40
58929;BMP180;44713;53.378;10.022;2023-05-31T01:25:44;102445.00;;;9.30
58929;BMP180;44713;53.378;10.022;2023-05-31T01:28:12;102435.00;;;9.30
58929;BMP180;44713;53.378;10.022;2023-05-31T01:30:39;102440.00;;;9.30
58929;BMP180;44713;53.378;10.022;2023-05-31T01:33:08;102434.00;;;9.20
58929;BMP180;44713;53.378;10.022;2023-05-31T01:35:35;102448.00;;;9.20
58929;BMP180;44713;53.378;10.022;2023-05-31T01:38:00;102436.00;;;9.10
58929;BMP180;44713;53.378;10.022;2023-05-31T01:40:27;102437.00;;;9.10
58929;BMP180;44713;53.378;10.022;2023-05-31T01:42:53;102442.00;;;9.10
58929;BMP180;44713;53.378;10.022;2023-05-31T01:45:19;102434.00;;;9.20
58929;BMP180;44713;53.378;10.022;2023-05-31T01:47:45;102433.00;;;9.20
58929;BMP180;44713;53.378;10.022;2023-05-31T01:50:13;102431.00;;;9.20
58929;BMP180;44713;53.378;10.022;2023-05-31T01:52:39;102439.00;;;9.20
58929;BMP180;44713;53.378;10.022;2023-05-31T01:55:06;102433.00;;;9.20
58929;BMP180;44713;53.378;10.022;2023-05-31T01:57:37;102440.00;;;9.10
58929;BMP180;44713;53.378;10.022;2023-05-31T02:00:03;102440.00;;;9.00
58929;BMP180;44713;53.378;10.022;2023-05-31T02:02:41;102440.00;;;8.90
58929;BMP180;44713;53.378;10.022;2023-05-31T02:05:08;102439.00;;;8.80
58929;BMP180;44713;53.378;10.022;2023-05-31T02:07:35;102434.00;;;8.80
58929;BMP180;44713;53.378;10.022;2023-05-31T02:10:02;102427.00;;;8.70
58929;BMP180;44713;53.378;10.022;2023-05-31T02:12:28;102430.00;;;8.70
58929;BMP180;44713;53.378;10.022;2023-05-31T02:14:53;102442.00;;;8.60
58929;BMP180;44713;53.378;10.022;2023-05-31T02:17:19;102441.00;;;8.60
58929;BMP180;44713;53.378;10.022;2023-05-31T02:19:52;102437.00;;;8.70
58929;BMP180;44713;53.378;10.022;2023-05-31T02:22:19;102434.00;;;8.70
58929;BMP180;44713;53.378;10.022;2023-05-31T02:24:45;102428.00;;;8.80
58929;BMP180;44713;53.378;10.022;2023-05-31T02:27:11;102424.00;;;8.80
58929;BMP180;44713;53.378;10.022;2023-05-31T02:29:36;102430.00;;;8.80
58929;BMP180;44713;53.378;10.022;2023-05-31T02:32:03;102429.00;;;8.80
58929;BMP180;44713;53.378;10.022;2023-05-31T02:34:29;102434.00;;;8.70
58929;BMP180;44713;53.378;10.022;2023-05-31T02:36:55;102433.00;;;8.80
58929;BMP180;44713;53.378;10.022;2023-05-31T02:39:21;102427.00;;;8.70
58929;BMP180;44713;53.378;10.022;2023-05-31T02:41:46;102436.00;;;8.70
58929;BMP180;44713;53.378;10.022;2023-05-31T02:44:11;102433.00;;;8.70
58929;BMP180;44713;53.378;10.022;2023-05-31T02:46:39;102429.00;;;8.60
58929;BMP180;44713;53.378;10.022;2023-05-31T02:49:05;102432.00;;;8.50
58929;BMP180;44713;53.378;10.022;2023-05-31T02:51:31;102435.00;;;8.40
58929;BMP180;44713;53.378;10.022;2023-05-31T02:54:20;102432.00;;;8.30
58929;BMP180;44713;53.378;10.022;2023-05-31T02:56:45;102427.00;;;8.30
58929;BMP180;44713;53.378;10.022;2023-05-31T02:59:16;102426.00;;;8.30
58929;BMP180;44713;53.378;10.022;2023-05-31T03:01:54;102417.00;;;8.30
58929;BMP180;44713;53.378;10.022;2023-05-31T03:04:40;102423.00;;;8.20
58929;BMP180;44713;53.378;10.022;2023-05-31T03:07:07;102428.00;;;8.20
58929;BMP180;44713;53.378;10.022;2023-05-31T03:09:32;102428.00;;;8.20
58929;BMP180;44713;53.378;10.022;2023-05-31T03:12:01;102412.00;;;8.20
58929;BMP180;44713;53.378;10.022;2023-05-31T03:14:26;102418.00;;;8.10
58929;BMP180;44713;53.378;10.022;2023-05-31T03:16:53;102420.00;;;8.20
58929;BMP180;44713;53.378;10.022;2023-05-31T03:19:19;102414.00;;;8.10
58929;BMP180;44713;53.378;10.022;2023-05-31T03:21:48;102413.00;;;8.10
58929;BMP180;44713;53.378;10.022;2023-05-31T03:24:13;102418.00;;;8.00
58929;BMP180;44713;53.378;10.022;2023-05-31T03:26:38;102421.00;;;8.00
58929;BMP180;44713;53.378;10.022;2023-05-31T03:29:04;102411.00;;;8.00
58929;BMP180;44713;53.378;10.022;2023-05-31T03:31:29;102415.00;;;8.00
58929;BMP180;44713;53.378;10.022;2023-05-31T03:33:56;102417.00;;;8.10
58929;BMP180;44713;53.378;10.022;2023-05-31T03:36:21;102422.00;;;8.00
58929;BMP180;44713;53.378;10.022;2023-05-31T03:38:47;102417.00;;;8.10
58929;BMP180;44713;53.378;10.022;2023-05-31T03:41:14;102417.00;;;8.00
58929;BMP180;44713;53.378;10.022;2023-05-31T03:43:39;102412.00;;;8.00
58929;BMP180;44713;53.378;10.022;2023-05-31T03:46:04;102417.00;;;8.00
58929;BMP180;44713;53.378;10.022;2023-05-31T03:48:30;102403.00;;;8.00
58929;BMP180;44713;53.378;10.022;2023-05-31T03:50:56;102408.00;;;8.00
58929;BMP180;44713;53.378;10.022;2023-05-31T03:53:22;102397.00;;;8.10
58929;BMP180;44713;53.378;10.022;2023-05-31T03:55:49;102401.00;;;8.10
58929;BMP180;44713;53.378;10.022;2023-05-31T03:58:14;102396.00;;;8.00
58929;BMP180;44713;53.378;10.022;2023-05-31T04:00:40;102407.00;;;8.00
58929;BMP180;44713;53.378;10.022;2023-05-31T04:03:06;102399.00;;;8.10
58929;BMP180;44713;53.378;10.022;2023-05-31T04:05:34;102398.00;;;8.10
58929;BMP180;44713;53.378;10.022;2023-05-31T04:08:00;102405.00;;;8.10
58929;BMP180;44713;53.378;10.022;2023-05-31T04:10:28;102399.00;;;8.10
58929;BMP180;44713;53.378;10.022;2023-05-31T04:12:54;102407.00;;;8.20
58929;BMP180;44713;53.378;10.022;2023-05-31T04:15:19;102403.00;;;8.30
58929;BMP180;44713;53.378;10.022;2023-05-31T04:17:45;102404.00;;;8.40
58929;BMP180;44713;53.378;10.022;2023-05-31T04:20:12;102404.00;;;8.60
58929;BMP180;44713;53.378;10.022;2023-05-31T04:22:37;102395.00;;;8.70
58929;BMP180;44713;53.378;10.022;2023-05-31T04:25:03;102391.00;;;8.80
58929;BMP180;44713;53.378;10.022;2023-05-31T04:27:33;102394.00;;;8.90
58929;BMP180;44713;53.378;10.022;2023-05-31T04:30:04;102405.00;;;8.90
58929;BMP180;44713;53.378;10.022;2023-05-31T04:32:31;102409.00;;;9.00
58929;BMP180;44713;53.378;10.022;2023-05-31T04:35:00;102405.00;;;9.10
58929;BMP180;44713;53.378;10.022;2023-05-31T04:37:30;102409.00;;;9.30
58929;BMP180;44713;53.378;10.022;2023-05-31T04:39:56;102401.00;;;9.60
58929;BMP180;44713;53.378;10.022;2023-05-31T04:42:26;102400.00;;;9.80
58929;BMP180;44713;53.378;10.022;2023-05-31T04:44:55;102409.00;;;9.90
58929;BMP180;44713;53.378;10.022;2023-05-31T04:47:26;102409.00;;;10.00
58929;BMP180;44713;53.378;10.022;2023-05-31T04:49:57;102411.00;;;10.10
58929;BMP180;44713;53.378;10.022;2023-05-31T04:52:28;102408.00;;;10.20
58929;BMP180;44713;53.378;10.022;2023-05-31T04:54:59;102412.00;;;10.30
58929;BMP180;44713;53.378;10.022;2023-05-31T04:57:26;102410.00;;;10.40
58929;BMP180;44713;53.378;10.022;2023-05-31T04:59:55;102411.00;;;10.40
58929;BMP180;44713;53.378;10.022;2023-05-31T05:02:23;102420.00;;;10.50
58929;BMP180;44713;53.378;10.022;2023-05-31T05:04:50;102415.00;;;10.50
58929;BMP180;44713;53.378;10.022;2023-05-31T05:07:16;102412.00;;;10.60
58929;BMP180;44713;53.378;10.022;2023-05-31T05:09:42;102415.00;;;10.70
58929;BMP180;44713;53.378;10.022;2023-05-31T05:12:09;102411.00;;;10.70
58929;BMP180;44713;53.378;10.022;2023-05-31T05:14:38;102416.00;;;10.80
58929;BMP180;44713;53.378;10.022;2023-05-31T05:17:05;102410.00;;;10.90
58929;BMP180;44713;53.378;10.022;2023-05-31T05:19:31;102409.00;;;10.90
58929;BMP180;44713;53.378;10.022;2023-05-31T05:21:57;102417.00;;;11.00
58929;BMP180;44713;53.378;10.022;2023-05-31T05:24:22;102416.00;;;11.00
58929;BMP180;44713;53.378;10.022;2023-05-31T05:26:47;102408.00;;;11.10
58929;BMP180;44713;53.378;10.022;2023-05-31T05:29:13;102409.00;;;11.20
58929;BMP180;44713;53.378;10.022;2023-05-31T05:31:38;102420.00;;;11.20
58929;BMP180;44713;53.378;10.022;2023-05-31T05:34:05;102419.00;;;11.30
58929;BMP180;44713;53.378;10.022;2023-05-31T05:36:30;102414.00;;;11.40
58929;BMP180;44713;53.378;10.022;2023-05-31T05:38:56;102413.00;;;11.50
58929;BMP180;44713;53.378;10.022;2023-05-31T05:41:29;102420.00;;;11.60
58929;BMP180;44713;53.378;10.022;2023-05-31T05:43:54;102422.00;;;11.70
58929;BMP180;44713;53.378;10.022;2023-05-31T05:46:19;102418.00;;;11.90
58929;BMP180;44713;53.378;10.022;2023-05-31T05:48:45;102413.00;;;12.00
58929;BMP180;44713;53.378;10.022;2023-05-31T05:51:12;102416.00;;;12.10
58929;BMP180;44713;53.378;10.022;2023-05-31T05:53:38;102415.00;;;12.20
58929;BMP180;44713;53.378;10.022;2023-05-31T05:56:03;102413.00;;;12.30
58929;BMP180;44713;53.378;10.022;2023-05-31T05:58:39;102419.00;;;12.40
58929;BMP180;44713;53.378;10.022;2023-05-31T06:01:28;102417.00;;;12.50
58929;BMP180;44713;53.378;10.022;2023-05-31T06:03:55;102417.00;;;12.60
58929;BMP180;44713;53.378;10.022;2023-05-31T06:06:22;102419.00;;;12.70
58929;BMP180;44713;53.378;10.022;2023-05-31T06:08:47;102416.00;;;12.90
58929;BMP180;44713;53.378;10.022;2023-05-31T06:11:13;102415.00;;;13.00
58929;BMP180;44713;53.378;10.022;2023-05-31T06:13:44;102412.00;;;13.20
58929;BMP180;44713;53.378;10.022;2023-05-31T06:16:13;102404.00;;;13.30
58929;BMP180;44713;53.378;10.022;2023-05-31T06:18:38;102399.00;;;13.50
58929;BMP180;44713;53.378;10.022;2023-05-31T06:21:04;102398.00;;;13.60
58929;BMP180;44713;53.378;10.022;2023-05-31T06:23:29;102393.00;;;13.70
58929;BMP180;44713;53.378;10.022;2023-05-31T06:25:55;102390.00;;;13.80
58929;BMP180;44713;53.378;10.022;2023-05-31T06:28:20;102392.00;;;13.80
58929;BMP180;44713;53.378;10.022;2023-05-31T06:30:48;102392.00;;;14.00
58929;BMP180;44713;53.378;10.022;2023-05-31T06:33:14;102389.00;;;14.00
58929;BMP180;44713;53.378;10.022;2023-05-31T06:35:39;102392.00;;;14.10
58929;BMP180;44713;53.378;10.022;2023-05-31T06:38:09;102386.00;;;14.20
58929;BMP180;44713;53.378;10.022;2023-05-31T06:40:41;102385.00;;;14.30
58929;BMP180;44713;53.378;10.022;2023-05-31T06:43:07;102386.00;;;14.50
58929;BMP180;44713;53.378;10.022;2023-05-31T06:45:52;102377.00;;;14.60
58929;BMP180;44713;53.378;10.022;2023-05-31T06:48:17;102382.00;;;14.60
58929;BMP180;44713;53.378;10.022;2023-05-31T06:51:01;102375.00;;;14.70
58929;BMP180;44713;53.378;10.022;2023-05-31T06:53:46;102377.00;;;14.70
58929;BMP180;44713;53.378;10.022;2023-05-31T06:56:24;102368.00;;;14.90
58929;BMP180;44713;53.378;10.022;2023-05-31T06:58:51;102366.00;;;14.90
58929;BMP180;44713;53.378;10.022;2023-05-31T07:01:17;102363.00;;;15.00
58929;BMP180;44713;53.378;10.022;2023-05-31T07:03:42;102363.00;;;15.20
58929;BMP180;44713;53.378;10.022;2023-05-31T07:06:08;102364.00;;;15.30
58929;BMP180;44713;53.378;10.022;2023-05-31T07:08:33;102356.00;;;15.30
58929;BMP180;44713;53.378;10.022;2023-05-31T07:11:17;102358.00;;;15.40
58929;BMP180;44713;53.378;10.022;2023-05-31T07:13:43;102354.00;;;15.50
58929;BMP180;44713;53.378;10.022;2023-05-31T07:16:08;102362.00;;;15.60
58929;BMP180;44713;53.378;10.022;2023-05-31T07:18:34;102362.00;;;15.60
58929;BMP180;44713;53.378;10.022;2023-05-31T07:20:59;102356.00;;;15.70
58929;BMP180;44713;53.378;10.022;2023-05-31T07:23:26;102350.00;;;15.80
58929;BMP180;44713;53.378;10.022;2023-05-31T07:25:51;102352.00;;;15.90
58929;BMP180;44713;53.378;10.022;2023-05-31T07:28:16;102360.00;;;16.00
58929;BMP180;44713;53.378;10.022;2023-05-31T07:30:42;102351.00;;;16.10
58929;BMP180;44713;53.378;10.022;2023-05-31T07:33:07;102350.00;;;16.30
58929;BMP180;44713;53.378;10.022;2023-05-31T07:35:32;102350.00;;;16.40
58929;BMP180;44713;53.378;10.022;2023-05-31T07:37:58;102348.00;;;16.40
58929;BMP180;44713;53.378;10.022;2023-05-31T07:40:23;102344.00;;;16.40
58929;BMP180;44713;53.378;10.022;2023-05-31T07:42:48;102345.00;;;16.50
58929;BMP180;44713;53.378;10.022;2023-05-31T07:45:14;102338.00;;;16.60
58929;BMP180;44713;53.378;10.022;2023-05-31T07:47:39;102343.00;;;16.90
58929;BMP180;44713;53.378;10.022;2023-05-31T07:50:05;102342.00;;;17.00
58929;BMP180;44713;53.378;10.022;2023-05-31T07:52:31;102344.00;;;17.10
58929;BMP180;44713;53.378;10.022;2023-05-31T07:54:56;102342.00;;;17.10
58929;BMP180;44713;53.378;10.022;2023-05-31T07:57:21;102344.00;;;17.20
58929;BMP180;44713;53.378;10.022;2023-05-31T07:59:49;102341.00;;;17.30
58929;BMP180;44713;53.378;10.022;2023-05-31T08:02:16;102340.00;;;17.40
58929;BMP180;44713;53.378;10.022;2023-05-31T08:04:41;102342.00;;;17.50
58929;BMP180;44713;53.378;10.022;2023-05-31T08:07:06;102339.00;;;17.70
58929;BMP180;44713;53.378;10.022;2023-05-31T08:09:32;102342.00;;;17.90
58929;BMP180;44713;53.378;10.022;2023-05-31T08:11:57;102336.00;;;18.00
58929;BMP180;44713;53.378;10.022;2023-05-31T08:14:23;102336.00;;;18.20
58929;BMP180;44713;53.378;10.022;2023-05-31T08:16:48;102337.00;;;18.20
58929;BMP180;44713;53.378;10.022;2023-05-31T08:19:14;102340.00;;;18.30
58929;BMP180;44713;53.378;10.022;2023-05-31T08:21:40;102344.00;;;18.30
58929;BMP180;44713;53.378;10.022;2023-05-31T08:24:05;102342.00;;;18.40
58929;BMP180;44713;53.378;10.022;2023-05-31T08:26:32;102339.00;;;18.50
58929;BMP180;44713;53.378;10.022;2023-05-31T08:28:58;102335.00;;;18.60
58929;BMP180;44713;53.378;10.022;2023-05-31T08:31:23;102332.00;;;18.70
58929;BMP180;44713;53.378;10.022;2023-05-31T08:33:54;102335.00;;;18.90
58929;BMP180;44713;53.378;10.022;2023-05-31T08:36:20;102332.00;;;19.00
58929;BMP180;44713;53.378;10.022;2023-05-31T08:38:45;102344.00;;;19.10
58929;BMP180;44713;53.378;10.022;2023-05-31T08:41:11;102328.00;;;19.10
58929;BMP180;44713;53.378;10.022;2023-05-31T08:43:39;102331.00;;;19.30
58929;BMP180;44713;53.378;10.022;2023-05-31T08:46:04;102316.00;;;19.60
58929;BMP180;44713;53.378;10.022;2023-05-31T08:48:57;102321.00;;;20.00
58929;BMP180;44713;53.378;10.022;2023-05-31T08:51:25;102318.00;;;20.30
58929;BMP180;44713;53.378;10.022;2023-05-31T08:53:52;102323.00;;;20.50
58929;BMP180;44713;53.378;10.022;2023-05-31T08:56:19;102322.00;;;20.40
58929;BMP180;44713;53.378;10.022;2023-05-31T08:58:50;102325.00;;;20.70
58929;BMP180;44713;53.378;10.022;2023-05-31T09:01:17;102317.00;;;20.80
58929;BMP180;44713;53.378;10.022;2023-05-31T09:03:44;102314.00;;;20.90
58929;BMP180;44713;53.378;10.022;2023-05-31T09:06:09;102321.00;;;21.10
58929;BMP180;44713;53.378;10.022;2023-05-31T09:08:34;102318.00;;;21.10
58929;BMP180;44713;53.378;10.022;2023-05-31T09:11:03;102318.00;;;21.30
58929;BMP180;44713;53.378;10.022;2023-05-31T09:13:31;102310.00;;;21.30
58929;BMP180;44713;53.378;10.022;2023-05-31T09:15:57;102305.00;;;21.50
58929;BMP180;44713;53.378;10.022;2023-05-31T09:18:23;102307.00;;;21.60
58929;BMP180;44713;53.378;10.022;2023-05-31T09:20:51;102306.00;;;21.90
58929;BMP180;44713;53.378;10.022;2023-05-31T09:23:21;102300.00;;;21.90
58929;BMP180;44713;53.378;10.022;2023-05-31T09:25:48;102292.00;;;22.10
58929;BMP180;44713;53.378;10.022;2023-05-31T09:28:14;102298.00;;;22.20
58929;BMP180;44713;53.378;10.022;2023-05-31T09:30:40;102293.00;;;22.40
58929;BMP180;44713;53.378;10.022;2023-05-31T09:33:06;102289.00;;;22.50
58929;BMP180;44713;53.378;10.022;2023-05-31T09:35:32;102289.00;;;22.50
58929;BMP180;44713;53.378;10.022;2023-05-31T09:38:03;102278.00;;;22.00
58929;BMP180;44713;53.378;10.022;2023-05-31T09:40:30;102285.00;;;22.50
58929;BMP180;44713;53.378;10.022;2023-05-31T09:42:56;102287.00;;;22.90
58929;BMP180;44713;53.378;10.022;2023-05-31T09:45:22;102282.00;;;23.10
58929;BMP180;44713;53.378;10.022;2023-05-31T09:47:48;102284.00;;;22.90
58929;BMP180;44713;53.378;10.022;2023-05-31T09:50:18;102274.00;;;23.20
58929;BMP180;44713;53.378;10.022;2023-05-31T09:52:45;102269.00;;;23.40
58929;BMP180;44713;53.378;10.022;2023-05-31T09:55:13;102276.00;;;23.70
58929;BMP180;44713;53.378;10.022;2023-05-31T09:57:39;102272.00;;;23.30
58929;BMP180;44713;53.378;10.022;2023-05-31T10:00:14;102269.00;;;23.60
58929;BMP180;44713;53.378;10.022;2023-05-31T10:02:45;102271.00;;;24.00
58929;BMP180;44713;53.378;10.022;2023-05-31T10:05:11;102273.00;;;23.90
58929;BMP180;44713;53.378;10.022;2023-05-31T10:07:42;102274.00;;;23.90
58929;BMP180;44713;53.378;10.022;2023-05-31T10:10:09;102274.00;;;24.00
58929;BMP180;44713;53.378;10.022;2023-05-31T10:12:48;102270.00;;;24.00
58929;BMP180;44713;53.378;10.022;2023-05-31T10:15:21;102269.00;;;24.10
58929;BMP180;44713;53.378;10.022;2023-05-31T10:18:02;102281.00;;;24.20
58929;BMP180;44713;53.378;10.022;2023-05-31T10:20:51;102275.00;;;24.20
58929;BMP180;44713;53.378;10.022;2023-05-31T10:23:23;102274.00;;;24.20
58929;BMP180;44713;53.378;10.022;2023-05-31T10:28:51;102272.00;;;24.70
58929;BMP180;44713;53.378;10.022;2023-05-31T10:31:22;102274.00;;;24.50
58929;BMP180;44713;53.378;10.022;2023-05-31T10:33:53;102265.00;;;24.50
58929;BMP180;44713;53.378;10.022;2023-05-31T10:36:19;102277.00;;;24.60
58929;BMP180;44713;53.378;10.022;2023-05-31T10:38:59;102266.00;;;24.00
58929;BMP180;44713;53.378;10.022;2023-05-31T10:41:32;102264.00;;;24.50
58929;BMP180;44713;53.378;10.022;2023-05-31T10:44:02;102262.00;;;24.90
58929;BMP180;44713;53.378;10.022;2023-05-31T10:46:30;102270.00;;;25.10
58929;BMP180;44713;53.378;10.022;2023-05-31T10:49:02;102268.00;;;25.00
58929;BMP180;44713;53.378;10.022;2023-05-31T10:51:45;102263.00;;;25.10
58929;BMP180;44713;53.378;10.022;2023-05-31T10:54:26;102260.00;;;25.40
58929;BMP180;44713;53.378;10.022;2023-05-31T10:56:56;102252.00;;;25.40
58929;BMP180;44713;53.378;10.022;2023-05-31T10:59:26;102251.00;;;25.70
58929;BMP180;44713;53.378;10.022;2023-05-31T11:01:51;102252.00;;;25.50
58929;BMP180;44713;53.378;10.022;2023-05-31T11:04:21;102248.00;;;26.00
58929;BMP180;44713;53.378;10.022;2023-05-31T11:06:51;102240.00;;;26.20
58929;BMP180;44713;53.378;10.022;2023-05-31T11:09:17;102240.00;;;25.70
58929;BMP180;44713;53.378;10.022;2023-05-31T11:11:48;102234.00;;;26.00
58929;BMP180;44713;53.378;10.022;2023-05-31T11:14:25;102237.00;;;26.00
58929;BMP180;44713;53.378;10.022;2023-05-31T11:19:29;102232.00;;;26.00
58929;BMP180;44713;53.378;10.022;2023-05-31T11:22:06;102231.00;;;26.30
58929;BMP180;44713;53.378;10.022;2023-05-31T11:24:51;102228.00;;;26.60
58929;BMP180;44713;53.378;10.022;2023-05-31T11:27:21;102234.00;;;26.40
58929;BMP180;44713;53.378;10.022;2023-05-31T11:32:19;102234.00;;;26.70
58929;BMP180;44713;53.378;10.022;2023-05-31T11:34:50;102227.00;;;26.50
58929;BMP180;44713;53.378;10.022;2023-05-31T11:37:16;102226.00;;;26.90
58929;BMP180;44713;53.378;10.022;2023-05-31T11:39:44;102230.00;;;26.90
58929;BMP180;44713;53.378;10.022;2023-05-31T11:42:10;102231.00;;;26.70
58929;BMP180;44713;53.378;10.022;2023-05-31T11:44:45;102228.00;;;27.00
58929;BMP180;44713;53.378;10.022;2023-05-31T11:47:20;102227.00;;;27.10
58929;BMP180;44713;53.378;10.022;2023-05-31T11:49:47;102223.00;;;27.20
58929;BMP180;44713;53.378;10.022;2023-05-31T11:52:18;102228.00;;;26.90
58929;BMP180;44713;53.378;10.022;2023-05-31T11:54:45;102219.00;;;27.20
58929;BMP180;44713;53.378;10.022;2023-05-31T11:57:11;102221.00;;;26.90
58929;BMP180;44713;53.378;10.022;2023-05-31T11:59:38;102215.00;;;27.00
58929;BMP180;44713;53.378;10.022;2023-05-31T12:02:05;102217.00;;;27.00
58929;BMP180;44713;53.378;10.022;2023-05-31T12:04:41;102211.00;;;27.30
58929;BMP180;44713;53.378;10.022;2023-05-31T12:07:09;102215.00;;;27.40
58929;BMP180;44713;53.378;10.022;2023-05-31T12:09:36;102209.00;;;27.30
58929;BMP180;44713;53.378;10.022;2023-05-31T12:12:03;102205.00;;;27.50
58929;BMP180;44713;53.378;10.022;2023-05-31T12:14:31;102202.00;;;27.50
58929;BMP180;44713;53.378;10.022;2023-05-31T12:17:00;102201.00;;;27.60
58929;BMP180;44713;53.378;10.022;2023-05-31T12:19:26;102190.00;;;27.70
58929;BMP180;44713;53.378;10.022;2023-05-31T12:21:51;102199.00;;;27.50
58929;BMP180;44713;53.378;10.022;2023-05-31T12:24:17;102189.00;;;27.20
58929;BMP180;44713;53.378;10.022;2023-05-31T12:26:44;102194.00;;;27.40
58929;BMP180;44713;53.378;10.022;2023-05-31T12:29:11;102187.00;;;27.50
58929;BMP180;44713;53.378;10.022;2023-05-31T12:31:37;102196.00;;;27.50
58929;BMP180;44713;53.378;10.022;2023-05-31T12:34:07;102190.00;;;27.00
58929;BMP180;44713;53.378;10.022;2023-05-31T12:39:06;102180.00;;;27.10
58929;BMP180;44713;53.378;10.022;2023-05-31T12:41:33;102185.00;;;26.90
58929;BMP180;44713;53.378;10.022;2023-05-31T12:43:58;102184.00;;;26.80
58929;BMP180;44713;53.378;10.022;2023-05-31T12:46:23;102177.00;;;26.30
58929;BMP180;44713;53.378;10.022;2023-05-31T12:48:49;102170.00;;;25.60
58929;BMP180;44713;53.378;10.022;2023-05-31T12:51:22;102163.00;;;25.60
58929;BMP180;44713;53.378;10.022;2023-05-31T12:53:47;102162.00;;;26.50
58929;BMP180;44713;53.378;10.022;2023-05-31T12:56:13;102162.00;;;26.90
58929;BMP180;44713;53.378;10.022;2023-05-31T12:58:38;102163.00;;;27.00
58929;BMP180;44713;53.378;10.022;2023-05-31T13:01:04;102159.00;;;27.00
58929;BMP180;44713;53.378;10.022;2023-05-31T13:03:30;102151.00;;;27.00
58929;BMP180;44713;53.378;10.022;2023-05-31T13:05:55;102153.00;;;27.30
58929;BMP180;44713;53.378;10.022;2023-05-31T13:08:21;102153.00;;;27.00
58929;BMP180;44713;53.378;10.022;2023-05-31T13:10:46;102154.00;;;27.20
58929;BMP180;44713;53.378;10.022;2023-05-31T13:13:11;102147.00;;;27.30
58929;BMP180;44713;53.378;10.022;2023-05-31T13:15:37;102140.00;;;27.30
58929;BMP180;44713;53.378;10.022;2023-05-31T13:18:02;102138.00;;;27.40
58929;BMP180;44713;53.378;10.022;2023-05-31T13:20:28;102141.00;;;27.30
58929;BMP180;44713;53.378;10.022;2023-05-31T13:22:53;102139.00;;;27.00
58929;BMP180;44713;53.378;10.022;2023-05-31T13:25:19;102140.00;;;27.20
58929;BMP180;44713;53.378;10.022;2023-05-31T13:27:44;102127.00;;;27.30
58929;BMP180;44713;53.378;10.022;2023-05-31T13:30:10;102127.00;;;26.80
58929;BMP180;44713;53.378;10.022;2023-05-31T13:32:35;102116.00;;;27.20
58929;BMP180;44713;53.378;10.022;2023-05-31T13:35:00;102120.00;;;27.40
58929;BMP180;44713;53.378;10.022;2023-05-31T13:37:26;102117.00;;;27.70
58929;BMP180;44713;53.378;10.022;2023-05-31T13:39:51;102121.00;;;27.60
58929;BMP180;44713;53.378;10.022;2023-05-31T13:42:17;102116.00;;;27.20
58929;BMP180;44713;53.378;10.022;2023-05-31T13:44:42;102112.00;;;27.30
58929;BMP180;44713;53.378;10.022;2023-05-31T13:47:08;102117.00;;;27.00
58929;BMP180;44713;53.378;10.022;2023-05-31T13:49:33;102111.00;;;26.70
58929;BMP180;44713;53.378;10.022;2023-05-31T13:51:59;102114.00;;;26.60
58929;BMP180;44713;53.378;10.022;2023-05-31T13:54:24;102114.00;;;26.70
58929;BMP180;44713;53.378;10.022;2023-05-31T13:56:50;102106.00;;;26.50
58929;BMP180;44713;53.378;10.022;2023-05-31T13:59:15;102106.00;;;26.70
58929;BMP180;44713;53.378;10.022;2023-05-31T14:01:41;102097.00;;;26.60
58929;BMP180;44713;53.378;10.022;2023-05-31T14:04:06;102105.00;;;26.90
58929;BMP180;44713;53.378;10.022;2023-05-31T14:06:32;102095.00;;;26.70
58929;BMP180;44713;53.378;10.022;2023-05-31T14:08:58;102093.00;;;26.80
58929;BMP180;44713;53.378;10.022;2023-05-31T14:11:23;102084.00;;;26.80